Milton, Vermont
Current Conditions -  °F | °C
As of 8:54 AM on Wednesday 26 Nov 2014 (Local Time) from KBTV Reporting Station
Overcast Overcast  
Wind Chill: 37°   Ceiling: 4000
Heat Index: 37°   Visibility: 10mi
Dew Point: 24°   Wind: 0mph
Humidity: 59%   Direction: NA
Pressure: 30.26"   Gusts: NA
Location:  44.64°N, 73.11°W
Report Text: KBTV 261354Z 00000KT 10SM OVC040 03/M04 A3026 RMK AO2 SLP249 T00281044
Loading
Personal Weather Stations






























Interactive Weather Map New forecast layout! Learn more

10-Day Weather Forecast

Advertisements
Track Severe Weather on mobile